Time;durP1;ratioP1;P1;durP2;ratioP2;P2;SDS_P1;SDS_P2;PMS_P1;PMS_P2;Temp;Humidity;BMP_temperature;BMP_pressure;BME280_temperature;BME280_humidity;BME280_pressure;Samples;Min_cycle;Max_cycle;Signal;HPM_P1;HPM_P2
2023/05/08 00:00:24;;;;;;;3.07;1.87;;;6.90;99.90;6.60;101502.00;;;;4922086;28;109718;-67
2023/05/08 00:02:49;;;;;;;2.73;2.03;;;6.80;99.90;6.60;101501.00;;;;4923819;28;100960;-66
2023/05/08 00:05:15;;;;;;;2.03;1.83;;;6.80;99.90;6.50;101496.00;;;;4923237;28;122028;-66
2023/05/08 00:07:41;;;;;;;2.40;2.20;;;7.30;99.90;6.50;101502.00;;;;4922390;28;122042;-67
2023/05/08 00:10:08;;;;;;;4.07;2.27;;;6.60;99.90;6.40;101500.00;;;;4927474;28;92828;-67
2023/05/08 00:12:35;;;;;;;1.80;1.60;;;6.60;99.90;6.40;101501.00;;;;4925300;28;93999;-67
2023/05/08 00:15:01;;;;;;;2.17;1.77;;;6.60;99.90;6.30;101498.00;;;;4926749;28;93557;-67
2023/05/08 00:17:27;;;;;;;3.17;2.37;;;7.10;99.90;6.30;101499.00;;;;4924116;28;114058;-68
2023/05/08 00:19:53;;;;;;;2.97;2.37;;;6.40;99.90;6.20;101503.00;;;;4925579;28;92511;-68
2023/05/08 00:22:19;;;;;;;4.57;2.00;;;6.90;99.90;6.10;101500.00;;;;4925215;28;92778;-68
2023/05/08 00:24:45;;;;;;;2.53;1.97;;;6.30;99.90;6.10;101507.00;;;;4924611;28;94185;-67
2023/05/08 00:27:11;;;;;;;3.67;2.17;;;6.70;99.90;6.00;101505.00;;;;4921785;28;123008;-68
2023/05/08 00:29:39;;;;;;;2.10;1.93;;;6.50;99.90;6.00;101508.00;;;;4926730;28;93328;-67
2023/05/08 00:32:05;;;;;;;2.13;1.93;;;6.10;99.90;5.90;101505.00;;;;4921614;28;92828;-67
2023/05/08 00:34:31;;;;;;;2.07;1.50;;;6.20;99.90;5.90;101511.00;;;;4923191;28;116277;-67
2023/05/08 00:36:57;;;;;;;3.83;2.20;;;6.10;99.90;5.90;101499.00;;;;4922806;28;121843;-67
2023/05/08 00:39:23;;;;;;;3.67;2.20;;;6.10;99.90;5.90;101511.00;;;;4924637;28;93133;-67
2023/05/08 00:41:48;;;;;;;2.70;1.97;;;6.00;99.90;5.80;101500.00;;;;4923113;28;109224;-66
2023/05/08 00:44:14;;;;;;;3.40;2.57;;;6.00;99.90;5.80;101494.00;;;;4924118;28;122951;-67
2023/05/08 00:46:41;;;;;;;2.63;2.10;;;6.00;99.90;5.80;101494.00;;;;4922568;28;93240;-68
2023/05/08 00:49:12;;;;;;;2.47;1.87;;;6.60;99.90;5.80;101491.00;;;;4926256;28;108257;-67
2023/05/08 00:51:39;;;;;;;2.57;2.13;;;5.90;99.90;5.80;101498.00;;;;4923330;28;93775;-68
2023/05/08 00:54:04;;;;;;;3.73;2.17;;;5.90;99.90;5.70;101499.00;;;;4923796;28;110620;-67
2023/05/08 00:56:33;;;;;;;4.10;2.00;;;5.90;99.90;5.70;101493.00;;;;4923223;28;120660;-68
2023/05/08 00:58:58;;;;;;;3.10;2.80;;;5.90;99.90;5.60;101494.00;;;;4921788;28;93146;-67
2023/05/08 01:01:24;;;;;;;2.70;2.37;;;5.80;99.90;5.60;101493.00;;;;4923024;28;108308;-68
2023/05/08 01:03:50;;;;;;;5.27;1.90;;;6.10;99.90;5.60;101491.00;;;;4927829;28;93939;-67
2023/05/08 01:06:16;;;;;;;5.73;2.50;;;5.70;99.90;5.60;101488.00;;;;4922837;28;93801;-67
2023/05/08 01:08:44;;;;;;;3.07;1.83;;;5.80;99.90;5.60;101487.00;;;;4923269;28;109741;-67
2023/05/08 01:11:27;;;;;;;3.03;2.20;;;5.70;99.90;5.50;101487.00;;;;4922642;28;94542;-67
2023/05/08 01:14:28;;;;;;;2.90;1.67;;;5.70;99.90;5.50;101496.00;;;;4923691;28;103363;-67
2023/05/08 01:17:42;;;;;;;3.33;1.93;;;5.70;99.90;5.40;101493.00;;;;4921942;28;114552;-68
2023/05/08 01:20:24;;;;;;;3.53;2.60;;;5.70;99.90;5.40;101490.00;;;;4924301;28;101984;-66
2023/05/08 01:23:47;;;;;;;2.17;1.93;;;5.50;99.90;5.30;101491.00;;;;4925737;28;92991;-66
2023/05/08 01:27:13;;;;;;;3.23;2.33;;;5.60;99.90;5.30;101492.00;;;;4908851;28;93872;-68
2023/05/08 01:29:50;;;;;;;3.10;2.80;;;5.50;99.90;5.20;101501.00;;;;4907442;28;95147;-67
2023/05/08 01:32:41;;;;;;;2.90;2.27;;;5.40;99.90;5.20;101503.00;;;;4929805;28;101680;-69
2023/05/08 01:35:23;;;;;;;3.60;2.00;;;5.50;99.90;5.20;101501.00;;;;4928802;28;93828;-68
2023/05/08 01:38:11;;;;;;;2.33;2.00;;;5.40;99.90;5.10;101496.00;;;;4930108;28;93156;-67
2023/05/08 01:40:52;;;;;;;3.80;2.00;;;5.40;99.90;5.10;101494.00;;;;4927810;28;92969;-67
2023/05/08 01:43:29;;;;;;;2.07;1.97;;;5.40;99.90;5.10;101507.00;;;;4930444;28;103354;-67
2023/05/08 01:45:57;;;;;;;3.80;1.90;;;5.30;99.90;5.10;101505.00;;;;4925205;28;93922;-68
2023/05/08 01:48:32;;;;;;;2.20;2.03;;;4.70;99.90;5.00;101500.00;;;;4926714;28;103880;-69
2023/05/08 01:51:17;;;;;;;2.53;2.33;;;5.80;99.90;5.00;101494.00;;;;4926944;28;112002;-68
2023/05/08 01:53:51;;;;;;;2.90;2.43;;;3.80;99.90;5.00;101499.00;;;;4927892;28;93123;-67
2023/05/08 01:56:22;;;;;;;3.47;1.80;;;5.70;99.90;4.90;101497.00;;;;4927000;28;102768;-68
2023/05/08 01:58:53;;;;;;;2.60;1.97;;;4.90;99.90;4.90;101496.00;;;;4926262;28;94110;-68
2023/05/08 02:01:24;;;;;;;3.67;2.50;;;5.30;99.90;4.80;101507.00;;;;4931478;28;109366;-68
2023/05/08 02:03:51;;;;;;;3.30;2.30;;;5.00;99.90;4.80;101501.00;;;;4928528;28;92182;-68
2023/05/08 02:06:20;;;;;;;2.37;2.03;;;5.60;99.90;4.70;101497.00;;;;4925679;28;92895;-68
2023/05/08 02:08:47;;;;;;;3.10;2.17;;;4.90;99.90;4.70;101497.00;;;;4926844;28;94315;-68
2023/05/08 02:11:16;;;;;;;3.23;2.43;;;5.50;99.90;4.60;101504.00;;;;4924343;28;114762;-68
2023/05/08 02:13:46;;;;;;;2.83;2.00;;;4.90;99.90;4.60;101496.00;;;;4926240;28;109285;-68
2023/05/08 02:16:12;;;;;;;3.50;2.63;;;4.80;99.90;4.60;101499.00;;;;4930390;28;98476;-67
2023/05/08 02:18:42;;;;;;;3.23;2.67;;;4.80;99.90;4.50;101495.00;;;;4926156;28;123534;-68
2023/05/08 02:21:08;;;;;;;3.13;2.53;;;4.70;99.90;4.50;101515.00;;;;4925649;28;109585;-68
2023/05/08 02:23:34;;;;;;;2.70;2.50;;;4.70;99.90;4.40;101507.00;;;;4925722;28;110548;-67
2023/05/08 02:26:02;;;;;;;2.93;2.67;;;4.70;99.90;4.40;101507.00;;;;4930076;28;92973;-67
2023/05/08 02:28:29;;;;;;;2.77;2.37;;;4.60;99.90;4.30;101507.00;;;;4932100;28;92740;-67
2023/05/08 02:30:57;;;;;;;3.40;2.70;;;4.60;99.90;4.30;101496.00;;;;4931061;28;93025;-67
2023/05/08 02:33:26;;;;;;;2.70;2.43;;;4.50;99.90;4.30;101496.00;;;;4925132;28;109974;-69
2023/05/08 02:35:54;;;;;;;2.30;1.97;;;4.50;99.90;4.30;101502.00;;;;4923772;28;108481;-68
2023/05/08 02:38:22;;;;;;;3.73;3.07;;;4.50;99.90;4.20;101510.00;;;;4925614;28;93159;-67
2023/05/08 02:40:54;;;;;;;2.07;1.80;;;4.40;99.90;4.20;101499.00;;;;4927181;28;92942;-67
2023/05/08 02:43:20;;;;;;;3.53;2.57;;;4.40;99.90;4.20;101496.00;;;;4927260;28;93241;-67
2023/05/08 02:45:53;;;;;;;3.03;2.53;;;4.40;99.90;4.20;101499.00;;;;4925558;28;109301;-67
2023/05/08 02:48:32;;;;;;;2.43;1.70;;;4.40;99.90;4.10;101505.00;;;;4927401;28;102894;-67
2023/05/08 02:51:17;;;;;;;3.07;2.27;;;4.40;99.90;4.10;101498.00;;;;4927868;28;93078;-68
2023/05/08 02:53:55;;;;;;;2.93;2.63;;;4.40;99.90;4.20;101504.00;;;;4927511;28;92287;-69
2023/05/08 02:56:57;;;;;;;3.27;2.20;;;4.40;99.90;4.20;101503.00;;;;4914869;28;96216;-68
2023/05/08 02:59:33;;;;;;;2.17;1.87;;;4.50;99.90;4.20;101509.00;;;;4878579;28;93341;-68
2023/05/08 03:02:11;;;;;;;2.77;2.10;;;4.40;99.90;4.30;101498.00;;;;4927250;28;94048;-68
2023/05/08 03:04:52;;;;;;;2.43;2.13;;;4.50;99.90;4.30;101509.00;;;;4924727;28;101231;-68
2023/05/08 03:07:22;;;;;;;3.07;2.43;;;4.50;99.90;4.30;101502.00;;;;4924775;28;93117;-67
2023/05/08 03:09:56;;;;;;;3.10;2.10;;;4.50;99.90;4.30;101506.00;;;;4924793;28;115889;-67
2023/05/08 03:12:25;;;;;;;3.27;2.83;;;4.60;99.90;4.40;101507.00;;;;4923935;28;114541;-67
2023/05/08 03:15:03;;;;;;;3.97;1.93;;;4.60;99.90;4.40;101518.00;;;;4927634;28;104127;-66
2023/05/08 03:17:32;;;;;;;4.53;2.67;;;4.60;99.90;4.40;101510.00;;;;4925019;28;93065;-67
2023/05/08 03:20:04;;;;;;;4.13;2.67;;;4.60;99.90;4.40;101516.00;;;;4927456;28;112675;-68
2023/05/08 03:22:33;;;;;;;3.60;2.70;;;4.60;99.90;4.50;101521.00;;;;4927229;28;92956;-68
2023/05/08 03:25:01;;;;;;;2.03;1.70;;;4.60;99.90;4.50;101517.00;;;;4923155;28;99846;-68
2023/05/08 03:27:29;;;;;;;3.37;2.87;;;4.70;99.90;4.50;101509.00;;;;4927584;28;94221;-68
2023/05/08 03:29:56;;;;;;;2.53;2.33;;;4.60;99.90;4.50;101517.00;;;;4925560;28;94483;-68
2023/05/08 03:32:25;;;;;;;3.03;2.10;;;4.70;99.90;4.50;101515.00;;;;4924034;28;114761;-68
2023/05/08 03:34:57;;;;;;;3.70;3.03;;;4.70;99.90;4.50;101511.00;;;;4930560;28;93256;-67
2023/05/08 03:37:26;;;;;;;2.53;1.93;;;4.70;99.90;4.50;101513.00;;;;4930591;28;100393;-68
2023/05/08 03:39:51;;;;;;;2.93;2.40;;;4.70;99.90;4.50;101514.00;;;;4927240;28;116104;-67
2023/05/08 03:42:20;;;;;;;2.33;1.60;;;4.70;99.90;4.60;101508.00;;;;4928631;28;122207;-67
2023/05/08 03:44:51;;;;;;;2.23;1.97;;;4.70;99.90;4.60;101511.00;;;;4929642;28;92403;-67
2023/05/08 03:47:26;;;;;;;3.03;2.17;;;4.70;99.90;4.60;101512.00;;;;4923437;28;94412;-68
2023/05/08 03:49:53;;;;;;;3.30;2.40;;;4.80;99.90;4.50;101507.00;;;;4925437;28;118729;-67
2023/05/08 03:52:18;;;;;;;5.53;3.10;;;4.80;99.90;4.50;101519.00;;;;4924579;28;93854;-67
2023/05/08 03:54:44;;;;;;;3.10;2.70;;;4.80;99.90;4.50;101517.00;;;;4924488;28;101938;-67
2023/05/08 03:57:10;;;;;;;2.77;2.37;;;5.00;99.90;4.60;101530.00;;;;4925452;28;93039;-67
2023/05/08 03:59:53;;;;;;;4.73;3.00;;;4.80;99.90;4.60;101528.00;;;;4925155;28;114490;-67
2023/05/08 04:02:54;;;;;;;4.30;2.50;;;4.80;99.90;4.60;101535.00;;;;4925368;28;93507;-67
2023/05/08 04:05:31;;;;;;;2.10;1.90;;;4.80;99.90;4.70;101529.00;;;;4925819;28;92914;-67
2023/05/08 04:08:07;;;;;;;2.17;2.00;;;4.90;99.90;4.80;101528.00;;;;4929499;28;92844;-67
2023/05/08 04:10:45;;;;;;;4.43;2.87;;;4.90;99.90;4.90;101538.00;;;;4923822;28;106431;-67
2023/05/08 04:13:22;;;;;;;2.73;2.53;;;5.10;99.90;5.00;101539.00;;;;4925046;28;93043;-67
2023/05/08 04:15:52;;;;;;;4.37;3.30;;;5.20;99.90;5.10;101545.00;;;;4925987;28;93125;-67
2023/05/08 04:18:24;;;;;;;2.63;2.43;;;6.00;99.90;5.30;101545.00;;;;4926874;28;93948;-67
2023/05/08 04:20:55;;;;;;;3.17;1.87;;;5.40;99.90;5.40;101534.00;;;;4925228;28;111060;-67
2023/05/08 04:23:22;;;;;;;3.90;2.30;;;5.50;99.90;5.40;101536.00;;;;4927444;28;93800;-68
2023/05/08 04:25:50;;;;;;;2.27;2.07;;;5.60;99.90;5.50;101549.00;;;;4926163;28;92869;-67
2023/05/08 04:28:18;;;;;;;5.50;2.90;;;5.70;99.90;5.60;101542.00;;;;4925481;28;95507;-69
2023/05/08 04:30:44;;;;;;;2.77;2.23;;;5.80;99.90;5.60;101559.00;;;;4925828;28;122325;-68
2023/05/08 04:33:10;;;;;;;3.80;2.63;;;5.80;99.90;5.80;101549.00;;;;4923516;28;93152;-67
2023/05/08 04:35:38;;;;;;;2.57;2.00;;;5.90;99.90;5.90;101544.00;;;;4925588;28;111059;-68
2023/05/08 04:38:04;;;;;;;6.20;3.07;;;6.00;99.90;6.00;101550.00;;;;4924752;28;92943;-68
2023/05/08 04:40:30;;;;;;;4.07;2.93;;;6.10;99.90;6.10;101563.00;;;;4922960;28;121187;-67
2023/05/08 04:42:56;;;;;;;4.50;2.70;;;6.30;99.90;6.30;101558.00;;;;4924553;28;95084;-67
2023/05/08 04:45:22;;;;;;;3.13;2.30;;;6.40;99.90;6.40;101558.00;;;;4924279;28;110736;-67
2023/05/08 04:47:48;;;;;;;2.87;2.60;;;6.60;99.90;6.50;101568.00;;;;4922639;28;99826;-67
2023/05/08 04:50:13;;;;;;;4.10;3.07;;;6.70;99.90;6.70;101570.00;;;;4922407;28;103903;-67
2023/05/08 04:52:39;;;;;;;2.63;2.43;;;6.80;99.90;6.80;101574.00;;;;4919428;28;96159;-67
2023/05/08 04:55:05;;;;;;;2.77;2.57;;;7.00;99.90;7.00;101576.00;;;;4923460;28;97305;-67
2023/05/08 04:57:32;;;;;;;4.37;2.20;;;7.10;99.90;7.10;101575.00;;;;4925569;28;95258;-68
2023/05/08 04:59:58;;;;;;;3.13;2.30;;;7.80;99.90;7.30;101584.00;;;;4925786;28;110622;-68
2023/05/08 05:02:27;;;;;;;2.73;1.87;;;7.50;99.90;7.40;101577.00;;;;4923400;28;96593;-68
2023/05/08 05:04:57;;;;;;;3.13;2.67;;;7.50;99.90;7.50;101586.00;;;;4925210;28;108614;-68
2023/05/08 05:07:23;;;;;;;3.03;2.40;;;7.60;99.90;7.60;101592.00;;;;4926663;28;95386;-69
2023/05/08 05:09:49;;;;;;;3.07;2.67;;;7.70;99.90;7.70;101584.00;;;;4927521;28;112291;-68
2023/05/08 05:12:14;;;;;;;3.57;2.60;;;7.70;99.90;7.80;101579.00;;;;4926142;28;123300;-67
2023/05/08 05:14:40;;;;;;;3.60;2.73;;;7.90;99.90;7.90;101582.00;;;;4928741;28;93057;-67
2023/05/08 05:17:06;;;;;;;3.80;2.77;;;7.90;99.90;8.00;101585.00;;;;4926658;28;92981;-68
2023/05/08 05:19:31;;;;;;;4.53;2.00;;;8.00;99.90;8.00;101585.00;;;;4925897;28;117548;-68
2023/05/08 05:21:57;;;;;;;3.83;3.40;;;8.10;99.90;8.10;101593.00;;;;4926392;28;122975;-68
2023/05/08 05:24:23;;;;;;;3.10;2.53;;;8.20;99.90;8.30;101588.00;;;;4924822;28;92354;-68
2023/05/08 05:26:48;;;;;;;2.50;2.27;;;8.30;99.90;8.30;101587.00;;;;4922826;28;92927;-68
2023/05/08 05:29:14;;;;;;;3.00;2.10;;;8.30;99.90;8.40;101587.00;;;;4924958;28;121863;-68
2023/05/08 05:31:40;;;;;;;2.30;1.77;;;8.40;99.90;8.40;101578.00;;;;4925814;28;123153;-68
2023/05/08 05:34:05;;;;;;;3.60;2.30;;;8.40;99.90;8.40;101590.00;;;;4928363;28;93398;-68
2023/05/08 05:36:31;;;;;;;3.33;2.53;;;8.50;99.90;8.40;101591.00;;;;4928491;28;108185;-68
2023/05/08 05:38:57;;;;;;;4.00;2.63;;;8.50;99.90;8.40;101594.00;;;;4926292;28;116697;-68
2023/05/08 05:41:23;;;;;;;2.83;2.10;;;8.40;99.90;8.50;101591.00;;;;4924101;28;122265;-67
2023/05/08 05:43:48;;;;;;;4.57;2.87;;;8.50;99.90;8.60;101594.00;;;;4926217;28;92772;-68
2023/05/08 05:46:14;;;;;;;3.07;1.70;;;8.60;99.90;8.70;101598.00;;;;4928268;28;108359;-68
2023/05/08 05:48:40;;;;;;;3.70;2.23;;;8.70;99.90;8.80;101590.00;;;;4925415;28;92747;-67
2023/05/08 05:51:05;;;;;;;1.90;1.60;;;8.80;99.90;8.90;101596.00;;;;4926199;28;94825;-68
2023/05/08 05:53:31;;;;;;;3.67;3.00;;;8.90;99.90;9.10;101603.00;;;;4931914;28;93601;-67
2023/05/08 05:55:57;;;;;;;2.47;1.60;;;9.10;99.90;9.20;101592.00;;;;4926377;28;108843;-67
2023/05/08 05:58:22;;;;;;;2.03;1.80;;;9.20;99.90;9.30;101597.00;;;;4925676;28;121718;-68
2023/05/08 06:00:48;;;;;;;2.37;1.70;;;9.30;99.90;9.40;101606.00;;;;4925945;28;122386;-69
2023/05/08 06:03:14;;;;;;;1.27;1.17;;;9.40;99.90;9.50;101605.00;;;;4928347;28;93198;-67
2023/05/08 06:05:40;;;;;;;3.93;2.07;;;9.50;99.90;9.70;101604.00;;;;4926201;28;92928;-67
2023/05/08 06:08:07;;;;;;;1.90;1.80;;;9.70;99.90;9.90;101598.00;;;;4924065;28;121931;-68
2023/05/08 06:10:32;;;;;;;3.20;2.33;;;9.80;99.90;10.00;101605.00;;;;4926296;28;94220;-67
2023/05/08 06:12:58;;;;;;;3.27;2.33;;;10.00;99.90;10.10;101613.00;;;;4926788;28;99483;-68
2023/05/08 06:15:24;;;;;;;9.57;2.17;;;10.10;99.90;10.20;101614.00;;;;4927628;28;108189;-67
2023/05/08 06:17:49;;;;;;;3.63;2.23;;;10.20;99.90;10.30;101608.00;;;;4928311;28;123373;-67
2023/05/08 06:20:15;;;;;;;2.97;2.03;;;10.30;99.90;10.30;101605.00;;;;4929963;28;105158;-67
2023/05/08 06:22:41;;;;;;;1.93;1.70;;;10.30;99.90;10.30;101609.00;;;;4926811;28;98975;-67
2023/05/08 06:25:08;;;;;;;6.57;1.50;;;10.40;99.90;10.40;101614.00;;;;4928068;28;92945;-67
2023/05/08 06:27:34;;;;;;;2.13;1.37;;;10.40;99.90;10.60;101622.00;;;;4931043;28;93130;-66
2023/05/08 06:30:00;;;;;;;2.50;1.53;;;10.50;99.90;10.60;101598.00;;;;4925464;28;93842;-67
2023/05/08 06:32:26;;;;;;;4.13;2.30;;;10.60;98.90;10.70;101606.00;;;;4928978;28;92767;-67
2023/05/08 06:34:52;;;;;;;1.33;1.23;;;10.40;98.50;10.80;101616.00;;;;4928499;28;107107;-67
2023/05/08 06:37:17;;;;;;;3.13;2.30;;;10.70;98.70;10.90;101612.00;;;;4927543;28;121812;-67
2023/05/08 06:39:43;;;;;;;2.23;1.77;;;10.80;98.20;11.00;101617.00;;;;4928564;28;112297;-67
2023/05/08 06:42:09;;;;;;;1.57;1.47;;;10.90;98.00;11.10;101607.00;;;;4924092;28;95150;-67
2023/05/08 06:44:35;;;;;;;1.73;1.23;;;11.00;97.20;11.20;101615.00;;;;4925867;28;108861;-67
2023/05/08 06:47:00;;;;;;;1.30;1.20;;;11.20;97.60;11.40;101618.00;;;;4924185;28;121708;-68
2023/05/08 06:49:26;;;;;;;2.53;1.50;;;11.30;96.30;11.50;101601.00;;;;4926830;28;107228;-67
2023/05/08 06:51:52;;;;;;;2.40;1.63;;;11.40;95.50;11.50;101606.00;;;;4927846;28;92762;-67
2023/05/08 06:54:17;;;;;;;1.03;1.00;;;11.50;94.90;11.60;101619.00;;;;4930403;28;107315;-67
2023/05/08 06:56:44;;;;;;;2.43;1.67;;;11.60;94.10;11.80;101614.00;;;;4929001;28;93185;-66
2023/05/08 06:59:09;;;;;;;1.77;1.60;;;11.60;93.80;11.90;101604.00;;;;4929351;28;92990;-67
2023/05/08 07:01:36;;;;;;;1.93;1.80;;;11.80;92.70;12.10;101614.00;;;;4924578;28;110388;-66
2023/05/08 07:04:02;;;;;;;1.73;1.33;;;12.00;92.90;12.20;101619.00;;;;4923754;28;93077;-66
2023/05/08 07:06:29;;;;;;;2.13;1.60;;;12.10;91.40;12.20;101609.00;;;;4926151;28;94799;-65
2023/05/08 07:08:56;;;;;;;1.07;0.87;;;12.20;91.90;12.40;101619.00;;;;4921983;28;94143;-67
2023/05/08 07:11:22;;;;;;;1.20;1.10;;;12.30;91.80;12.60;101613.00;;;;4925190;28;102448;-66
2023/05/08 07:13:47;;;;;;;1.77;0.97;;;12.50;89.30;12.80;101616.00;;;;4926889;28;93764;-66
2023/05/08 07:16:14;;;;;;;0.90;0.90;;;12.70;90.20;13.10;101617.00;;;;4926898;28;93200;-66
2023/05/08 07:18:40;;;;;;;2.00;1.50;;;12.90;87.10;13.20;101613.00;;;;4926168;28;92878;-66
2023/05/08 07:21:06;;;;;;;1.17;0.90;;;13.10;85.80;13.40;101606.00;;;;4923587;28;92834;-67
2023/05/08 07:23:32;;;;;;;0.63;0.63;;;13.20;85.00;13.40;101600.00;;;;4926725;28;92973;-65
2023/05/08 07:25:58;;;;;;;1.37;1.23;;;13.30;83.20;13.60;101612.00;;;;4925203;28;121496;-66
2023/05/08 07:28:24;;;;;;;0.70;0.70;;;13.40;81.40;13.60;101609.00;;;;4924820;28;92960;-66
2023/05/08 07:30:50;;;;;;;1.23;1.10;;;13.50;83.00;13.90;101606.00;;;;4926288;28;93204;-67
2023/05/08 07:33:16;;;;;;;1.20;1.10;;;13.70;81.60;14.00;101619.00;;;;4926592;28;94561;-67
2023/05/08 07:35:42;;;;;;;1.57;0.93;;;13.90;78.10;14.20;101616.00;;;;4923549;28;115647;-66
2023/05/08 07:38:08;;;;;;;1.03;0.73;;;14.00;75.60;14.20;101606.00;;;;4919593;28;123015;-67
2023/05/08 07:40:34;;;;;;;1.83;1.00;;;14.10;75.40;14.30;101617.00;;;;4928594;28;92840;-66
2023/05/08 07:42:59;;;;;;;1.63;0.87;;;14.20;76.70;14.50;101631.00;;;;4921599;28;109107;-66
2023/05/08 07:45:25;;;;;;;1.00;0.90;;;14.30;77.40;14.80;101625.00;;;;4923378;28;103069;-66
2023/05/08 07:47:54;;;;;;;0.70;0.70;;;14.70;72.90;15.00;101634.00;;;;4922766;28;122870;-67
2023/05/08 07:50:21;;;;;;;1.10;0.83;;;14.80;73.40;15.20;101625.00;;;;4925944;28;94778;-67
2023/05/08 07:52:47;;;;;;;1.38;0.95;;;15.00;71.40;15.30;101615.00;;;;4921497;28;92928;-65
2023/05/08 07:55:13;;;;;;;1.88;1.20;;;15.10;69.70;15.40;101617.00;;;;4923919;28;118629;-66
2023/05/08 07:57:42;;;;;;;2.17;1.33;;;15.20;67.20;15.40;101619.00;;;;4922931;28;94000;-66
2023/05/08 08:00:11;;;;;;;4.13;0.93;;;15.30;66.20;15.40;101614.00;;;;4922981;28;93011;-69
2023/05/08 08:02:37;;;;;;;1.02;0.65;;;15.30;64.30;15.30;101617.00;;;;4921978;28;93095;-68
2023/05/08 08:05:04;;;;;;;1.10;1.00;;;15.20;65.90;15.50;101615.00;;;;4922361;28;94415;-68
2023/05/08 08:07:33;;;;;;;0.70;0.60;;;15.30;65.10;15.60;101604.00;;;;4922826;28;93661;-69
2023/05/08 08:09:59;;;;;;;0.82;0.68;;;15.40;64.00;15.80;101608.00;;;;4922336;28;93203;-66
2023/05/08 08:12:26;;;;;;;0.63;0.63;;;15.60;61.40;15.80;101607.00;;;;4925536;28;93112;-68
2023/05/08 08:14:52;;;;;;;0.68;0.55;;;15.60;60.20;15.80;101601.00;;;;4923213;28;92647;-67
2023/05/08 08:17:17;;;;;;;1.02;0.77;;;15.60;59.10;15.70;101605.00;;;;4921649;28;121925;-66
2023/05/08 08:19:43;;;;;;;0.77;0.60;;;15.60;60.40;15.80;101608.00;;;;4926452;28;110586;-67
2023/05/08 08:22:09;;;;;;;0.90;0.63;;;15.60;62.00;16.00;101606.00;;;;4923365;28;108520;-67
2023/05/08 08:24:35;;;;;;;1.52;0.70;;;15.80;61.00;16.10;101607.00;;;;4921720;28;122376;-67
2023/05/08 08:27:01;;;;;;;0.60;0.60;;;15.90;58.60;16.10;101596.00;;;;4922247;28;118035;-67
2023/05/08 08:29:26;;;;;;;2.38;0.90;;;15.90;56.50;16.10;101602.00;;;;4923530;28;92909;-66
2023/05/08 08:31:52;;;;;;;1.15;1.05;;;15.90;56.70;16.10;101604.00;;;;4925652;28;107804;-67
2023/05/08 08:34:18;;;;;;;0.93;0.55;;;15.90;57.40;16.20;101595.00;;;;4926202;28;99835;-67
2023/05/08 08:36:43;;;;;;;0.95;0.85;;;16.00;57.40;16.20;101607.00;;;;4928210;28;93483;-66
2023/05/08 08:39:09;;;;;;;0.28;0.28;;;16.10;56.30;16.20;101605.00;;;;4931436;28;109853;-67
2023/05/08 08:41:38;;;;;;;0.68;0.63;;;16.10;56.30;16.30;101609.00;;;;4927300;28;107821;-67
2023/05/08 08:44:04;;;;;;;0.85;0.45;;;16.10;56.90;16.50;101609.00;;;;4930539;28;94027;-67
2023/05/08 08:46:32;;;;;;;0.80;0.73;;;16.30;57.00;16.60;101608.00;;;;4929381;28;115622;-67
2023/05/08 08:48:58;;;;;;;1.50;0.93;;;16.40;56.30;16.70;101595.00;;;;4931148;28;92894;-67
2023/05/08 08:51:32;;;;;;;2.78;0.70;;;16.50;55.30;16.90;101604.00;;;;4933270;28;109146;-66
2023/05/08 08:54:13;;;;;;;1.13;0.70;;;16.60;56.80;17.10;101606.00;;;;4927311;28;93617;-67
2023/05/08 08:56:43;;;;;;;1.17;0.88;;;16.80;55.00;17.10;101607.00;;;;4932177;28;93165;-65
2023/05/08 08:59:11;;;;;;;0.82;0.50;;;17.00;54.80;17.30;101614.00;;;;4930048;28;92884;-67
2023/05/08 09:01:39;;;;;;;0.75;0.60;;;17.00;52.20;17.20;101603.00;;;;4929169;28;107155;-67
2023/05/08 09:04:05;;;;;;;1.95;0.90;;;17.00;52.00;17.10;101606.00;;;;4927298;28;92715;-68
2023/05/08 09:06:36;;;;;;;0.88;0.68;;;17.00;52.20;17.20;101612.00;;;;4925713;28;93072;-68
2023/05/08 09:09:03;;;;;;;0.70;0.55;;;17.00;52.50;17.20;101608.00;;;;4932723;28;92968;-68
2023/05/08 09:11:29;;;;;;;1.48;0.63;;;17.00;51.80;17.20;101614.00;;;;4928960;28;93901;-68
2023/05/08 09:13:55;;;;;;;1.33;0.80;;;17.00;52.80;17.40;101597.00;;;;4933994;28;93330;-68
2023/05/08 09:16:22;;;;;;;0.60;0.60;;;17.10;52.10;17.40;101603.00;;;;4928643;28;113787;-67
2023/05/08 09:18:48;;;;;;;0.90;0.60;;;17.20;52.60;17.60;101607.00;;;;4925807;28;93196;-68
2023/05/08 09:21:14;;;;;;;1.17;0.75;;;17.30;52.50;17.80;101600.00;;;;4927625;28;108806;-67
2023/05/08 09:24:03;;;;;;;0.68;0.65;;;17.50;52.30;18.00;101607.00;;;;4923746;28;93064;-68
2023/05/08 09:26:39;;;;;;;0.50;0.50;;;17.70;51.10;18.00;101600.00;;;;4926004;28;112695;-68
2023/05/08 09:29:17;;;;;;;1.95;0.95;;;17.80;49.90;18.00;101600.00;;;;4926627;28;93350;-67
2023/05/08 09:31:51;;;;;;;0.50;0.50;;;17.80;49.40;18.00;101607.00;;;;4926904;28;93043;-69
2023/05/08 09:34:27;;;;;;;0.40;0.40;;;17.80;49.00;18.00;101601.00;;;;4927822;28;93366;-68
2023/05/08 09:37:11;;;;;;;0.75;0.75;;;17.80;49.10;18.10;101605.00;;;;4929319;28;93850;-68
2023/05/08 09:39:42;;;;;;;1.23;0.60;;;17.70;48.70;18.20;101596.00;;;;4927184;28;94505;-70
2023/05/08 09:42:08;;;;;;;1.77;0.80;;;17.90;48.50;18.30;101600.00;;;;4926861;28;92862;-68
2023/05/08 09:44:53;;;;;;;1.23;1.00;;;18.00;48.00;18.20;101588.00;;;;4926669;28;93363;-67
2023/05/08 09:47:21;;;;;;;0.73;0.73;;;18.00;48.40;18.30;101595.00;;;;4927626;28;122236;-70
2023/05/08 09:49:58;;;;;;;1.55;0.93;;;18.00;49.30;18.40;101591.00;;;;4926587;28;93165;-72
2023/05/08 09:52:23;;;;;;;0.50;0.50;;;18.10;48.70;18.40;101586.00;;;;4929908;28;93107;-70
2023/05/08 09:55:05;;;;;;;0.65;0.40;;;18.10;47.70;18.40;101581.00;;;;4926713;28;94427;-70
2023/05/08 09:57:37;;;;;;;0.45;0.40;;;18.10;48.00;18.30;101582.00;;;;4926787;28;92938;-69
2023/05/08 10:00:11;;;;;;;1.13;1.02;;;18.10;47.80;18.30;101577.00;;;;4927971;28;92871;-70
2023/05/08 10:02:40;;;;;;;1.65;0.60;;;18.00;48.00;18.40;101595.00;;;;4927485;28;94051;-73
2023/05/08 10:05:29;;;;;;;0.93;0.70;;;18.10;49.20;18.40;101586.00;;;;4928472;28;94197;-73
2023/05/08 10:08:16;;;;;;;0.50;0.50;;;18.20;45.80;18.50;101583.00;;;;4926856;28;93058;-70
2023/05/08 10:10:42;;;;;;;5.72;1.17;;;18.10;46.90;18.70;101584.00;;;;4928631;28;95130;-72
2023/05/08 10:13:07;;;;;;;2.65;0.70;;;18.30;47.60;19.10;101593.00;;;;4927820;28;93094;-72
2023/05/08 10:15:36;;;;;;;1.75;0.82;;;18.60;48.00;19.40;101594.00;;;;4928066;28;122636;-74
2023/05/08 10:18:05;;;;;;;0.90;0.50;;;18.80;47.00;19.50;101601.00;;;;4925965;28;96258;-73
2023/05/08 10:20:32;;;;;;;1.10;0.60;;;19.00;46.20;19.40;101590.00;;;;4929468;28;92077;-73
2023/05/08 10:22:59;;;;;;;0.52;0.52;;;19.10;45.20;19.50;101586.00;;;;4929795;28;92975;-73
2023/05/08 10:25:30;;;;;;;1.13;1.02;;;19.10;44.80;19.50;101587.00;;;;4907242;28;94447;-74
2023/05/08 10:28:21;;;;;;;2.75;0.88;;;19.10;45.40;19.70;101578.00;;;;4925948;28;108284;-74
2023/05/08 10:30:48;;;;;;;1.10;0.90;;;19.30;45.00;19.90;101587.00;;;;4909437;28;93154;-75
2023/05/08 10:33:19;;;;;;;2.90;0.70;;;19.40;44.20;20.00;101577.00;;;;4923284;28;93217;-75
2023/05/08 10:35:45;;;;;;;0.47;0.43;;;19.50;44.30;20.20;101583.00;;;;4927163;28;92885;-74
2023/05/08 10:38:11;;;;;;;1.08;0.75;;;19.70;44.00;20.30;101585.00;;;;4924873;28;93073;-74
2023/05/08 10:40:37;;;;;;;0.75;0.57;;;19.80;43.70;20.30;101591.00;;;;4923852;28;96202;-73
2023/05/08 10:43:06;;;;;;;2.05;0.90;;;19.80;43.10;20.20;101582.00;;;;4938986;28;93344;-75
2023/05/08 10:45:32;;;;;;;0.70;0.70;;;19.80;42.00;20.30;101583.00;;;;4924267;28;93480;-74
2023/05/08 10:48:47;;;;;;;1.55;0.70;;;19.90;42.40;20.50;101582.00;;;;4927390;28;99056;-75
2023/05/08 10:51:32;;;;;;;1.48;0.80;;;20.10;42.30;20.60;101584.00;;;;4920576;28;102970;-73
2023/05/08 10:54:25;;;;;;;0.88;0.60;;;20.20;40.90;20.70;101575.00;;;;4924729;28;94163;-73
2023/05/08 10:56:51;;;;;;;0.30;0.30;;;20.30;41.00;20.70;101575.00;;;;4925615;28;107242;-75
2023/05/08 10:59:20;;;;;;;0.60;0.50;;;20.30;40.40;20.70;101582.00;;;;4909624;28;121747;-74
2023/05/08 11:01:49;;;;;;;0.32;0.32;;;20.30;40.10;20.60;101573.00;;;;4927526;28;93159;-74
2023/05/08 11:04:22;;;;;;;0.93;0.60;;;20.30;39.60;20.60;101576.00;;;;4921213;28;92929;-75